Time;durP1;ratioP1;P1;durP2;ratioP2;P2;SDS_P1;SDS_P2;PMS_P1;PMS_P2;Temp;Humidity;BMP_temperature;BMP_pressure;BME280_temperature;BME280_humidity;BME280_pressure;Samples;Min_cycle;Max_cycle;Signal;HPM_P1;HPM_P2
2022/10/18 00:02:21;;;;;;;17.35;8.88;;;;;;;9.85;68.31;150130.11;1674850;84;21080;-64
2022/10/18 00:04:49;;;;;;;21.77;9.18;;;;;;;9.86;68.21;150132.70;1677934;82;21080;-64
2022/10/18 00:07:16;;;;;;;28.10;9.75;;;;;;;9.86;68.23;150132.70;1639290;86;21055;-62
2022/10/18 00:09:43;;;;;;;24.15;9.35;;;;;;;9.88;68.31;150137.88;1679088;84;21202;-65
2022/10/18 00:12:10;;;;;;;17.07;7.90;;;;;;;9.89;68.26;150141.75;1654312;85;21076;-63
2022/10/18 00:14:37;;;;;;;23.35;8.90;;;;;;;9.90;68.18;150143.06;1653722;86;21104;-63
2022/10/18 00:17:06;;;;;;;34.92;10.75;;;;;;;9.93;68.22;150150.84;1680034;84;21102;-64
2022/10/18 00:19:33;;;;;;;22.70;9.15;;;;;;;9.94;68.30;150153.44;1687473;84;21063;-64
2022/10/18 00:22:01;;;;;;;18.82;7.72;;;;;;;9.94;68.27;150153.44;1673058;84;21122;-63
2022/10/18 00:24:28;;;;;;;18.40;8.03;;;;;;;9.97;68.14;150161.20;1660930;85;21108;-63
2022/10/18 00:26:55;;;;;;;16.93;8.20;;;;;;;10.00;68.01;150167.72;1661275;85;21124;-63
2022/10/18 00:29:22;;;;;;;20.10;8.95;;;;;;;9.99;68.05;150166.39;1672410;84;21017;-64
2022/10/18 00:31:49;;;;;;;20.50;9.40;;;;;;;9.99;68.15;150166.39;1655460;84;21107;-63
2022/10/18 00:34:16;;;;;;;24.05;10.70;;;;;;;9.98;68.26;150163.80;1686309;84;21624;-64
2022/10/18 00:36:43;;;;;;;25.30;11.20;;;;;;;9.95;68.46;150154.75;1684486;84;21052;-64
2022/10/18 00:39:15;;;;;;;22.98;9.70;;;;;;;9.91;68.69;150145.66;1678822;83;21048;-64
2022/10/18 00:41:44;;;;;;;22.10;9.68;;;;;;;9.91;68.86;150144.34;1679169;84;21028;-64
2022/10/18 00:44:16;;;;;;;22.48;9.15;;;;;;;9.87;68.96;150136.56;1673218;84;21040;-68
2022/10/18 00:46:46;;;;;;;17.60;8.80;;;;;;;9.87;68.79;150136.56;1668518;85;21157;-67
2022/10/18 00:49:34;;;;;;;20.48;8.85;;;;;;;9.88;68.59;150137.88;1677255;85;21079;-67
2022/10/18 00:52:12;;;;;;;21.15;8.98;;;;;;;9.91;68.46;150145.66;1629817;87;21015;-69
2022/10/18 00:54:41;;;;;;;27.48;9.18;;;;;;;9.90;68.42;150143.06;1676769;84;21285;-68
2022/10/18 00:57:08;;;;;;;18.80;8.38;;;;;;;9.88;68.35;150137.88;1699420;84;21044;-67
2022/10/18 00:59:35;;;;;;;21.90;8.45;;;;;;;9.86;68.27;150132.70;1657149;85;21250;-67
2022/10/18 01:02:04;;;;;;;21.50;8.28;;;;;;;9.85;68.14;150130.11;1656850;85;20972;-67
2022/10/18 01:04:32;;;;;;;26.20;10.50;;;;;;;9.84;68.09;150127.52;1656963;86;21742;-68
2022/10/18 01:07:13;;;;;;;21.10;9.70;;;;;;;9.83;68.16;150126.19;1670065;85;21040;-68
2022/10/18 01:10:08;;;;;;;28.12;10.13;;;;;;;9.79;68.31;150115.83;1666983;85;21018;-67
2022/10/18 01:12:56;;;;;;;15.78;8.40;;;;;;;9.73;68.37;150101.55;1660449;86;21107;-68
2022/10/18 01:15:47;;;;;;;16.07;9.25;;;;;;;9.68;68.62;150088.59;1651747;86;20955;-67
2022/10/18 01:18:38;;;;;;;17.75;8.73;;;;;;;9.64;69.04;150076.91;1670181;85;21011;-68
2022/10/18 01:21:35;;;;;;;21.90;9.55;;;;;;;9.59;69.33;150065.22;1640654;86;21335;-68
2022/10/18 01:24:39;;;;;;;22.05;10.55;;;;;;;9.54;69.40;150052.27;1676886;84;21114;-68
2022/10/18 01:27:59;;;;;;;18.65;7.35;;;;;;;9.50;69.69;150041.91;1684025;84;21024;-68
2022/10/18 01:30:52;;;;;;;19.80;8.15;;;;;;;9.40;69.96;150018.58;1680627;84;21502;-67
2022/10/18 01:33:28;;;;;;;23.07;9.58;;;;;;;9.36;69.86;150008.17;1648749;86;21066;-67
2022/10/18 01:36:06;;;;;;;21.37;9.03;;;;;;;9.37;69.81;150010.77;1655086;86;21553;-67
2022/10/18 01:38:33;;;;;;;21.10;10.10;;;;;;;9.35;69.78;150005.58;1680889;84;21073;-67
2022/10/18 01:41:00;;;;;;;24.92;10.15;;;;;;;9.28;69.77;149987.44;1692944;84;21249;-68
2022/10/18 01:43:28;;;;;;;22.70;10.15;;;;;;;9.20;70.15;149966.72;1692853;84;21513;-67
2022/10/18 01:45:55;;;;;;;29.55;10.28;;;;;;;9.14;70.52;149952.45;1693001;84;21564;-67
2022/10/18 01:48:22;;;;;;;22.15;9.48;;;;;;;9.09;70.71;149940.77;1646819;84;21171;-67
2022/10/18 01:50:49;;;;;;;19.07;9.68;;;;;;;9.08;70.86;149936.91;1682985;84;21127;-66
2022/10/18 01:53:31;;;;;;;22.20;10.05;;;;;;;9.06;70.98;149933.00;1679232;85;21532;-67
2022/10/18 01:56:19;;;;;;;24.75;10.68;;;;;;;9.05;71.17;149929.09;1679085;85;21226;-68
2022/10/18 01:59:09;;;;;;;31.52;12.25;;;;;;;9.03;71.50;149925.23;1669686;86;21071;-67
2022/10/18 02:02:03;;;;;;;23.22;11.85;;;;;;;8.98;71.91;149913.55;1672752;85;21780;-67
2022/10/18 02:05:00;;;;;;;28.83;14.07;;;;;;;8.93;72.68;149900.59;1661074;86;21095;-67
2022/10/18 02:07:32;;;;;;;32.28;14.47;;;;;;;8.91;73.45;149894.09;1642776;87;21325;-67
2022/10/18 02:10:05;;;;;;;26.00;12.58;;;;;;;8.86;74.31;149882.47;1592474;88;21123;-68
2022/10/18 02:12:32;;;;;;;30.27;14.10;;;;;;;8.85;74.77;149881.16;1616244;87;21051;-69
2022/10/18 02:15:01;;;;;;;25.82;13.38;;;;;;;8.84;75.14;149878.56;1585942;88;21059;-68
2022/10/18 02:17:28;;;;;;;38.58;14.23;;;;;;;8.84;75.42;149877.23;1614224;88;21047;-68
2022/10/18 02:19:55;;;;;;;32.00;13.85;;;;;;;8.81;75.58;149870.80;1614233;88;21465;-68
2022/10/18 02:22:26;;;;;;;28.90;13.45;;;;;;;8.79;75.84;149865.61;1586437;88;21040;-68
2022/10/18 02:24:55;;;;;;;23.42;12.80;;;;;;;8.76;76.16;149856.53;1614745;88;21067;-68
2022/10/18 02:27:21;;;;;;;27.80;12.53;;;;;;;8.70;76.44;149842.25;1614245;88;21096;-68
2022/10/18 02:29:48;;;;;;;32.42;13.25;;;;;;;8.67;76.72;149834.48;1614146;88;21150;-68
2022/10/18 02:32:26;;;;;;;26.97;13.05;;;;;;;8.64;77.00;149826.72;1614170;88;21262;-68
2022/10/18 02:35:02;;;;;;;26.45;14.00;;;;;;;8.57;77.26;149811.19;1615630;87;21088;-67
2022/10/18 02:37:34;;;;;;;26.07;14.13;;;;;;;8.52;77.78;149796.92;1597799;89;21126;-67
2022/10/18 02:40:01;;;;;;;23.52;12.93;;;;;;;8.45;78.37;149780.02;1652458;86;21061;-69
2022/10/18 02:42:44;;;;;;;24.20;13.08;;;;;;;8.41;78.79;149770.98;1614070;87;21087;-68
2022/10/18 02:45:11;;;;;;;27.13;13.32;;;;;;;8.41;79.06;149769.66;1609330;87;21930;-67
2022/10/18 02:47:37;;;;;;;38.90;14.65;;;;;;;8.41;79.34;149769.66;1597293;88;21521;-66
2022/10/18 02:50:05;;;;;;;24.18;12.85;;;;;;;8.38;79.53;149761.89;1621146;88;21063;-67
2022/10/18 02:52:32;;;;;;;23.27;13.05;;;;;;;8.36;79.81;149756.72;1620779;88;21508;-67
2022/10/18 02:55:00;;;;;;;36.00;14.10;;;;;;;8.33;80.01;149750.22;1620805;88;21886;-68
2022/10/18 02:57:29;;;;;;;26.48;12.90;;;;;;;8.31;80.28;149745.05;1621057;88;21486;-67
2022/10/18 02:59:56;;;;;;;22.42;12.37;;;;;;;8.28;80.39;149738.55;1638613;86;21031;-67
2022/10/18 03:02:23;;;;;;;27.07;13.15;;;;;;;8.26;80.32;149733.38;1643527;86;21059;-67
2022/10/18 03:04:51;;;;;;;35.43;13.10;;;;;;;8.25;80.38;149730.78;1643166;86;21167;-67
2022/10/18 03:07:18;;;;;;;27.13;13.50;;;;;;;8.24;80.47;149728.19;1651222;86;21095;-67
2022/10/18 03:09:45;;;;;;;22.45;12.03;;;;;;;8.21;80.74;149720.42;1659607;85;22366;-68
2022/10/18 03:12:12;;;;;;;25.40;12.53;;;;;;;8.20;80.85;149717.84;1655330;86;21028;-68
2022/10/18 03:14:40;;;;;;;26.27;12.40;;;;;;;8.22;80.81;149723.02;1679990;84;20980;-67
2022/10/18 03:17:07;;;;;;;24.72;12.30;;;;;;;8.26;80.57;149733.38;1680121;83;21616;-68
2022/10/18 03:19:37;;;;;;;26.30;13.10;;;;;;;8.32;80.36;149747.62;1689883;84;21051;-67
2022/10/18 03:22:04;;;;;;;25.75;13.00;;;;;;;8.35;80.14;149754.12;1699279;84;21025;-68
2022/10/18 03:24:31;;;;;;;28.05;12.25;;;;;;;8.36;79.99;149756.72;1698802;84;21001;-68
2022/10/18 03:27:00;;;;;;;27.40;13.30;;;;;;;8.38;79.94;149761.89;1687947;83;21509;-69
2022/10/18 03:29:27;;;;;;;30.02;13.88;;;;;;;8.37;80.05;149759.31;1688968;83;21025;-69
2022/10/18 03:31:54;;;;;;;28.23;12.80;;;;;;;8.36;80.09;149756.72;1618138;88;21526;-68
2022/10/18 03:34:20;;;;;;;33.58;14.78;;;;;;;8.36;80.14;149756.72;1605875;88;21913;-68
2022/10/18 03:36:47;;;;;;;30.65;14.58;;;;;;;8.37;80.18;149759.31;1643205;87;21101;-63
2022/10/18 03:39:14;;;;;;;24.47;13.35;;;;;;;8.36;80.35;149757.98;1671972;85;21105;-67
2022/10/18 03:41:41;;;;;;;29.50;14.43;;;;;;;8.33;80.56;149748.95;1639685;86;21080;-67
2022/10/18 03:44:08;;;;;;;27.50;13.18;;;;;;;8.27;80.84;149735.97;1642893;87;21028;-68
2022/10/18 03:46:35;;;;;;;26.70;13.83;;;;;;;8.25;80.90;149730.78;1689828;84;21881;-67
2022/10/18 03:49:02;;;;;;;36.42;14.30;;;;;;;8.23;81.08;149725.61;1682680;85;21048;-68
2022/10/18 03:51:29;;;;;;;29.72;15.40;;;;;;;8.16;81.32;149707.48;1667602;84;21012;-68
2022/10/18 03:53:57;;;;;;;36.83;14.00;;;;;;;8.08;81.66;149686.78;1684920;84;21542;-68
2022/10/18 03:56:24;;;;;;;31.33;14.03;;;;;;;7.97;82.15;149660.84;1697124;84;21084;-68
2022/10/18 03:58:50;;;;;;;29.50;14.47;;;;;;;7.88;82.54;149637.56;1671958;85;21247;-68
2022/10/18 04:01:17;;;;;;;28.60;13.95;;;;;;;7.79;82.92;149615.53;1656095;86;21033;-68
2022/10/18 04:03:44;;;;;;;32.83;13.95;;;;;;;7.72;83.36;149597.37;1667141;85;21824;-68
2022/10/18 04:06:12;;;;;;;30.37;13.15;;;;;;;7.69;83.50;149589.61;1677661;85;21036;-67
2022/10/18 04:08:44;;;;;;;32.10;12.93;;;;;;;7.67;83.59;149585.75;1657817;86;21486;-67
2022/10/18 04:11:11;;;;;;;27.32;13.15;;;;;;;7.69;83.50;149589.61;1663584;85;21750;-67
2022/10/18 04:13:38;;;;;;;25.90;13.15;;;;;;;7.71;83.35;149596.11;1659010;86;21045;-67
2022/10/18 04:16:06;;;;;;;30.23;13.22;;;;;;;7.74;83.28;149603.86;1655398;85;21488;-68
2022/10/18 04:18:34;;;;;;;32.38;13.15;;;;;;;7.78;83.26;149611.62;1667958;85;21018;-68
2022/10/18 04:21:01;;;;;;;31.05;12.95;;;;;;;7.81;83.22;149619.39;1656965;85;21306;-64
2022/10/18 04:23:31;;;;;;;25.65;13.50;;;;;;;7.83;83.30;149625.89;1656182;85;21260;-63
2022/10/18 04:26:00;;;;;;;28.40;13.80;;;;;;;7.88;83.45;149637.56;1656334;85;21473;-64
2022/10/18 04:28:27;;;;;;;33.05;13.35;;;;;;;8.02;83.42;149673.80;1656008;86;21076;-64
2022/10/18 04:30:53;;;;;;;35.95;14.63;;;;;;;8.19;83.06;149715.25;1656097;86;21633;-64
2022/10/18 04:33:21;;;;;;;50.52;15.68;;;;;;;8.30;82.73;149742.45;1667538;85;21721;-65
2022/10/18 04:35:51;;;;;;;30.90;13.88;;;;;;;8.36;82.50;149757.98;1667570;85;21544;-63
2022/10/18 04:38:18;;;;;;;28.35;13.10;;;;;;;8.37;82.37;149759.31;1668744;85;21035;-64
2022/10/18 04:40:45;;;;;;;26.73;12.58;;;;;;;8.39;82.39;149764.48;1667862;85;21520;-64
2022/10/18 04:43:20;;;;;;;22.20;12.20;;;;;;;8.47;82.34;149785.19;1664896;85;21074;-64
2022/10/18 04:45:53;;;;;;;25.60;12.58;;;;;;;8.62;82.15;149821.55;1656143;85;21111;-64
2022/10/18 04:48:19;;;;;;;36.25;12.53;;;;;;;8.79;81.68;149864.30;1658003;86;21109;-68
2022/10/18 04:50:50;;;;;;;47.33;14.73;;;;;;;8.89;80.98;149891.50;1657718;86;21108;-69
2022/10/18 04:53:17;;;;;;;35.30;13.90;;;;;;;9.08;80.58;149936.91;1659516;85;21602;-68
2022/10/18 04:55:45;;;;;;;30.08;13.45;;;;;;;9.32;79.88;149997.81;1670855;85;21003;-68
2022/10/18 04:58:12;;;;;;;25.08;12.35;;;;;;;9.41;78.78;150021.17;1634517;86;21099;-68
2022/10/18 05:00:39;;;;;;;28.45;13.68;;;;;;;9.39;78.42;150015.94;1657736;86;21893;-68
2022/10/18 05:03:07;;;;;;;33.85;13.95;;;;;;;9.39;78.27;150014.67;1664416;85;21015;-68
2022/10/18 05:05:34;;;;;;;31.05;14.85;;;;;;;9.34;78.13;150002.98;1665633;85;21013;-68
2022/10/18 05:08:03;;;;;;;32.42;14.47;;;;;;;9.28;78.12;149987.44;1659041;86;21103;-68
2022/10/18 05:10:30;;;;;;;21.02;12.23;;;;;;;9.29;78.00;149990.03;1643120;87;21076;-68
2022/10/18 05:12:57;;;;;;;25.37;12.85;;;;;;;9.29;77.69;149990.03;1664705;86;21280;-67
2022/10/18 05:15:24;;;;;;;21.62;10.15;;;;;;;9.34;77.31;150002.98;1663668;86;21060;-69
2022/10/18 05:17:50;;;;;;;17.65;9.40;;;;;;;9.43;77.03;150025.03;1671747;84;21280;-68
2022/10/18 05:20:18;;;;;;;18.67;9.55;;;;;;;9.61;76.63;150070.41;1662739;86;21092;-67
2022/10/18 05:22:46;;;;;;;27.85;11.50;;;;;;;9.87;75.62;150135.28;1677512;85;21543;-69
2022/10/18 05:25:13;;;;;;;28.70;13.15;;;;;;;10.13;74.54;150201.41;1643721;86;21257;-69
2022/10/18 05:27:40;;;;;;;37.95;12.68;;;;;;;10.28;73.44;150239.08;1670321;85;21079;-69
2022/10/18 05:30:08;;;;;;;34.40;12.75;;;;;;;10.32;72.94;150249.44;1679337;84;21055;-70
2022/10/18 05:32:35;;;;;;;31.70;12.88;;;;;;;10.35;72.90;150254.63;1668346;85;21292;-70
2022/10/18 05:35:02;;;;;;;23.75;11.48;;;;;;;10.41;72.77;150270.23;1631294;87;21083;-69
2022/10/18 05:37:29;;;;;;;21.35;10.23;;;;;;;10.50;72.51;150292.30;1676357;85;21251;-69
2022/10/18 05:39:56;;;;;;;13.83;8.40;;;;;;;10.62;72.09;150322.14;1674992;85;21040;-69
2022/10/18 05:42:23;;;;;;;16.57;8.58;;;;;;;10.74;71.23;150353.31;1665964;85;21790;-69
2022/10/18 05:44:49;;;;;;;17.87;9.20;;;;;;;10.92;70.73;150397.41;1675031;84;21052;-65
2022/10/18 05:47:17;;;;;;;20.25;9.30;;;;;;;11.10;70.04;150444.14;1676457;84;21145;-65
2022/10/18 05:49:44;;;;;;;23.32;9.75;;;;;;;11.26;69.45;150483.09;1671947;84;21426;-65
2022/10/18 05:52:12;;;;;;;27.80;11.78;;;;;;;11.36;68.85;150507.78;1654595;86;21056;-64
2022/10/18 05:54:40;;;;;;;25.12;12.58;;;;;;;11.45;68.90;150531.12;1662858;84;21036;-64
2022/10/18 05:57:07;;;;;;;21.00;10.35;;;;;;;11.51;68.79;150545.42;1663485;84;21036;-64
2022/10/18 05:59:34;;;;;;;29.30;9.63;;;;;;;11.56;68.83;150558.39;1660295;84;21084;-65
2022/10/18 06:02:01;;;;;;;16.50;9.78;;;;;;;11.63;69.08;150575.28;1658009;84;21241;-64
2022/10/18 06:04:27;;;;;;;26.48;9.93;;;;;;;11.74;68.94;150605.16;1631978;85;21052;-64
2022/10/18 06:06:55;;;;;;;24.15;11.68;;;;;;;11.83;68.69;150625.97;1669456;84;21099;-64
2022/10/18 06:09:21;;;;;;;32.67;12.93;;;;;;;11.83;68.69;150627.23;1678258;84;21087;-64
2022/10/18 06:11:48;;;;;;;22.93;10.53;;;;;;;11.84;68.96;150628.56;1666747;84;21085;-62
2022/10/18 06:14:16;;;;;;;24.52;10.03;;;;;;;11.92;69.91;150649.33;1652684;84;21249;-65
2022/10/18 06:16:43;;;;;;;24.18;9.88;;;;;;;12.06;70.32;150683.16;1660647;84;21073;-65
2022/10/18 06:19:10;;;;;;;30.23;10.58;;;;;;;12.21;70.18;150720.83;1660232;84;21052;-65
2022/10/18 06:21:39;;;;;;;21.40;8.70;;;;;;;12.32;70.45;150750.72;1655713;84;21626;-65
2022/10/18 06:24:08;;;;;;;18.60;8.08;;;;;;;12.49;70.47;150792.31;1627400;85;21801;-64
2022/10/18 06:26:36;;;;;;;19.75;8.53;;;;;;;12.66;70.73;150833.84;1669263;84;21009;-69
2022/10/18 06:29:03;;;;;;;21.12;9.48;;;;;;;12.79;70.58;150867.66;1686460;84;21069;-69
2022/10/18 06:31:31;;;;;;;15.80;8.68;;;;;;;12.86;70.71;150884.58;1630928;86;21131;-68
2022/10/18 06:33:58;;;;;;;21.93;9.40;;;;;;;12.94;70.93;150904.08;1672935;84;21052;-69
2022/10/18 06:36:25;;;;;;;19.95;8.78;;;;;;;13.04;70.89;150931.38;1646545;86;21058;-68
2022/10/18 06:38:55;;;;;;;19.23;8.48;;;;;;;13.15;70.98;150958.67;1628802;87;43213;-69
2022/10/18 06:41:22;;;;;;;15.23;8.38;;;;;;;13.27;71.57;150987.25;1677124;84;21107;-68
2022/10/18 06:43:51;;;;;;;17.73;8.70;;;;;;;13.38;71.93;151015.89;1673220;84;21093;-69
2022/10/18 06:46:18;;;;;;;16.85;8.73;;;;;;;13.46;72.36;151036.72;1627017;87;21120;-64
2022/10/18 06:48:46;;;;;;;16.93;8.53;;;;;;;13.52;72.88;151049.72;1667288;84;21103;-64
2022/10/18 06:51:14;;;;;;;22.55;8.95;;;;;;;13.59;73.19;151067.91;1658461;84;21001;-64
2022/10/18 06:53:40;;;;;;;20.52;9.15;;;;;;;13.66;73.84;151086.14;1656164;84;21512;-65
2022/10/18 06:56:12;;;;;;;18.75;9.23;;;;;;;13.72;74.10;151100.45;1657812;84;21766;-64
2022/10/18 06:58:40;;;;;;;25.97;10.45;;;;;;;13.81;74.15;151122.53;1648769;84;21103;-63
2022/10/18 07:01:10;;;;;;;23.55;10.68;;;;;;;13.89;74.36;151144.64;1671136;84;21117;-64
2022/10/18 07:03:38;;;;;;;21.45;10.32;;;;;;;13.95;74.84;151158.97;1668008;84;21247;-64
2022/10/18 07:06:07;;;;;;;27.50;11.20;;;;;;;13.99;75.13;151168.09;1659312;84;21486;-64
2022/10/18 07:08:35;;;;;;;18.77;11.20;;;;;;;14.04;75.26;151182.41;1674277;84;21024;-64
2022/10/18 07:11:04;;;;;;;19.07;10.40;;;;;;;14.12;75.46;151200.59;1667332;84;21044;-64
2022/10/18 07:13:31;;;;;;;20.97;11.93;;;;;;;14.16;76.14;151211.00;1677204;84;21050;-64
2022/10/18 07:16:10;;;;;;;27.90;12.30;;;;;;;14.20;76.12;151220.13;1658044;85;21440;-63
2022/10/18 07:18:39;;;;;;;22.32;10.98;;;;;;;14.20;76.06;151221.41;1646729;86;21021;-65
2022/10/18 07:21:13;;;;;;;21.07;11.00;;;;;;;14.16;76.72;151211.00;1677671;84;21087;-65
2022/10/18 07:23:42;;;;;;;21.00;10.38;;;;;;;14.19;77.34;151218.81;1678990;84;21068;-69
2022/10/18 07:26:23;;;;;;;28.52;10.95;;;;;;;14.28;78.21;151240.92;1674747;84;21095;-69
2022/10/18 07:29:10;;;;;;;27.07;10.03;;;;;;;14.31;78.05;151248.72;1670722;83;21235;-70
2022/10/18 07:31:40;;;;;;;22.30;9.80;;;;;;;14.36;78.49;151260.45;1639210;86;21089;-65
2022/10/18 07:34:09;;;;;;;27.77;10.30;;;;;;;14.46;79.28;151287.78;1645639;86;21092;-64
2022/10/18 07:36:36;;;;;;;39.38;10.20;;;;;;;14.54;79.35;151307.30;1645844;85;21045;-63
2022/10/18 07:39:04;;;;;;;41.48;9.70;;;;;;;14.64;79.28;151330.70;1639319;86;21589;-63
2022/10/18 07:41:32;;;;;;;23.45;9.28;;;;;;;14.69;79.41;151345.03;1633181;85;21316;-63
2022/10/18 07:44:00;;;;;;;20.82;8.30;;;;;;;14.75;80.05;151359.41;1675486;84;21330;-68
2022/10/18 07:46:27;;;;;;;19.30;8.80;;;;;;;14.81;80.58;151375.02;1643167;86;21093;-65
2022/10/18 07:48:54;;;;;;;30.32;8.88;;;;;;;14.83;81.01;151380.22;1666859;84;21063;-70
2022/10/18 07:51:22;;;;;;;20.32;8.08;;;;;;;14.82;81.13;151377.62;1657273;86;21592;-69
2022/10/18 07:53:49;;;;;;;27.52;8.13;;;;;;;14.86;81.69;151388.03;1691443;84;22081;-68
2022/10/18 07:56:19;;;;;;;20.77;8.03;;;;;;;14.93;81.80;151403.67;1641447;86;21117;-68
2022/10/18 07:58:50;;;;;;;17.15;8.30;;;;;;;15.00;81.90;151423.16;1690699;84;21103;-69
2022/10/18 08:01:16;;;;;;;13.72;7.53;;;;;;;15.05;82.04;151434.89;1680884;84;21146;-70
2022/10/18 08:03:45;;;;;;;14.47;8.15;;;;;;;15.09;82.06;151445.30;1680036;84;21247;-69
2022/10/18 08:06:15;;;;;;;13.83;7.62;;;;;;;15.16;82.19;151462.22;1682456;83;21224;-69
2022/10/18 08:08:43;;;;;;;13.13;7.50;;;;;;;15.18;82.28;151468.75;1674030;83;21067;-67
2022/10/18 08:11:22;;;;;;;17.80;8.13;;;;;;;15.24;82.63;151483.03;1669624;84;21583;-68
2022/10/18 08:13:50;;;;;;;13.48;8.40;;;;;;;15.31;82.85;151499.97;1678570;84;21069;-68
2022/10/18 08:16:21;;;;;;;15.23;8.10;;;;;;;15.39;82.90;151519.52;1675959;84;21549;-68
2022/10/18 08:18:48;;;;;;;21.70;8.33;;;;;;;15.44;82.69;151533.84;1677113;84;21218;-68
2022/10/18 08:21:18;;;;;;;17.55;8.00;;;;;;;15.46;82.62;151539.06;1678734;84;21042;-70
2022/10/18 08:23:46;;;;;;;25.77;8.83;;;;;;;15.46;82.67;151537.73;1641320;85;21082;-68
2022/10/18 08:26:18;;;;;;;16.15;8.73;;;;;;;15.47;82.85;151540.33;1647576;85;21045;-68
2022/10/18 08:28:47;;;;;;;16.45;8.43;;;;;;;15.47;83.16;151540.33;1658738;84;21622;-68
2022/10/18 08:31:19;;;;;;;18.50;9.00;;;;;;;15.45;83.70;151536.45;1656094;84;21889;-69
2022/10/18 08:33:47;;;;;;;19.15;9.15;;;;;;;15.46;84.20;151539.06;1656082;85;21567;-69
2022/10/18 08:36:15;;;;;;;18.62;7.72;;;;;;;15.49;84.62;151544.25;1682341;83;20985;-69
2022/10/18 08:39:08;;;;;;;20.90;8.85;;;;;;;15.50;84.90;151546.86;1608590;87;21131;-69
2022/10/18 08:41:53;;;;;;;47.08;9.48;;;;;;;15.55;85.17;151559.88;1664020;84;21345;-69
2022/10/18 08:44:29;;;;;;;39.33;8.88;;;;;;;15.60;84.58;151572.94;1667133;84;21174;-68
2022/10/18 08:47:06;;;;;;;33.80;10.05;;;;;;;15.62;84.28;151578.12;1677636;83;21121;-69
2022/10/18 08:49:44;;;;;;;30.05;9.75;;;;;;;15.65;84.00;151585.94;1657325;84;21042;-69
2022/10/18 08:52:37;;;;;;;46.35;9.85;;;;;;;15.64;84.31;151583.34;1659950;84;21091;-69
2022/10/18 08:55:35;;;;;;;21.77;8.60;;;;;;;15.65;84.67;151585.94;1663315;83;21055;-69
2022/10/18 08:58:18;;;;;;;20.75;8.15;;;;;;;15.70;84.98;151598.95;1669447;84;21146;-69
2022/10/18 09:00:50;;;;;;;16.67;7.30;;;;;;;15.81;85.10;151625.03;1669987;84;21107;-70
2022/10/18 09:04:06;;;;;;;14.90;7.30;;;;;;;15.84;85.09;151632.84;1655179;84;21045;-69
2022/10/18 09:06:52;;;;;;;15.68;7.80;;;;;;;15.86;85.30;151638.05;1653376;84;21162;-69
2022/10/18 09:09:53;;;;;;;13.78;8.03;;;;;;;15.86;85.09;151639.31;1647169;85;21057;-68
2022/10/18 09:13:13;;;;;;;18.70;8.38;;;;;;;15.89;84.92;151647.17;1630637;86;22447;-69
2022/10/18 09:15:46;;;;;;;18.45;8.63;;;;;;;15.89;84.82;151645.91;1669186;84;21067;-68
2022/10/18 09:18:31;;;;;;;16.20;8.80;;;;;;;15.89;84.74;151645.91;1666697;85;21739;-70
2022/10/18 09:21:02;;;;;;;23.65;8.93;;;;;;;15.87;84.66;151641.92;1665574;84;21084;-68
2022/10/18 09:23:48;;;;;;;12.07;8.13;;;;;;;15.83;84.58;151630.23;1668137;84;21570;-68
2022/10/18 09:26:19;;;;;;;22.45;8.40;;;;;;;15.80;84.75;151623.70;1659662;84;21285;-69
2022/10/18 09:29:16;;;;;;;18.45;7.67;;;;;;;15.80;84.98;151622.38;1654093;84;21175;-70
2022/10/18 09:32:04;;;;;;;18.80;8.13;;;;;;;15.79;85.19;151619.78;1674979;84;21076;-70
2022/10/18 09:34:51;;;;;;;22.15;8.33;;;;;;;15.79;85.39;151619.78;1676646;84;21026;-69
2022/10/18 09:37:19;;;;;;;24.45;9.00;;;;;;;15.76;85.69;151614.56;1666972;84;21397;-65
2022/10/18 09:39:47;;;;;;;16.12;8.28;;;;;;;15.71;85.69;151601.56;1676541;84;21624;-64
2022/10/18 09:42:36;;;;;;;15.23;7.65;;;;;;;15.68;86.05;151593.75;1673285;83;21047;-63
2022/10/18 09:45:09;;;;;;;11.63;7.50;;;;;;;15.69;86.64;151596.34;1668488;84;21090;-64
2022/10/18 09:47:42;;;;;;;17.90;7.17;;;;;;;15.74;87.29;151609.36;1669873;84;21126;-61
2022/10/18 09:50:40;;;;;;;18.12;7.80;;;;;;;15.79;87.45;151621.09;1667430;84;21164;-62
2022/10/18 09:53:18;;;;;;;13.68;7.10;;;;;;;15.83;87.60;151630.23;1672239;83;21268;-63
2022/10/18 09:56:02;;;;;;;12.35;7.03;;;;;;;15.80;87.77;151622.38;1665628;84;21122;-63
2022/10/18 09:58:35;;;;;;;15.68;7.42;;;;;;;15.80;88.06;151622.38;1663057;84;21087;-63
2022/10/18 10:01:02;;;;;;;16.82;7.75;;;;;;;15.86;88.22;151639.31;1645545;85;21078;-63
2022/10/18 10:03:28;;;;;;;13.78;7.92;;;;;;;15.90;88.05;151648.50;1646582;85;21092;-64
2022/10/18 10:06:28;;;;;;;16.40;7.42;;;;;;;15.93;88.04;151656.31;1635558;84;21064;-63
2022/10/18 10:09:02;;;;;;;13.75;7.22;;;;;;;15.98;87.96;151669.33;1657975;84;21382;-64
2022/10/18 10:11:37;;;;;;;14.00;6.40;;;;;;;16.02;87.80;151679.73;1657988;83;26722;-64
2022/10/18 10:14:25;;;;;;;10.85;5.70;;;;;;;16.08;87.28;151692.81;1664205;84;21633;-64
2022/10/18 10:17:02;;;;;;;9.73;5.50;;;;;;;16.09;85.86;151695.41;1674624;84;21056;-64
2022/10/18 10:19:37;;;;;;;9.35;5.47;;;;;;;16.09;85.45;151695.41;1657764;84;21901;-63
2022/10/18 10:22:10;;;;;;;14.68;5.70;;;;;;;16.10;85.44;151698.02;1657664;84;20984;-65
2022/10/18 10:24:47;;;;;;;11.22;5.47;;;;;;;16.10;85.44;151699.28;1673586;84;21535;-70
2022/10/18 10:27:30;;;;;;;10.03;5.37;;;;;;;16.14;85.36;151708.42;1672366;84;21110;-65
2022/10/18 10:29:59;;;;;;;9.58;5.05;;;;;;;16.16;84.93;151714.95;1668726;84;21130;-72
2022/10/18 10:32:33;;;;;;;8.05;4.92;;;;;;;16.21;84.68;151725.37;1634986;85;21258;-70
2022/10/18 10:35:02;;;;;;;11.03;5.08;;;;;;;16.22;83.31;151729.25;1639028;86;21075;-71
2022/10/18 10:37:35;;;;;;;7.42;4.47;;;;;;;16.21;83.36;151726.64;1646402;84;21086;-71
2022/10/18 10:40:25;;;;;;;12.00;5.00;;;;;;;16.23;83.52;151731.84;1669311;84;21507;-70
2022/10/18 10:42:56;;;;;;;10.35;5.25;;;;;;;16.26;82.79;151739.70;1649210;85;21060;-70
2022/10/18 10:45:24;;;;;;;7.40;5.33;;;;;;;16.29;82.88;151747.52;1659290;84;21899;-70
2022/10/18 10:47:52;;;;;;;8.90;4.92;;;;;;;16.31;82.71;151752.72;1668498;84;21128;-70
2022/10/18 10:50:25;;;;;;;10.43;5.30;;;;;;;16.34;82.11;151759.22;1674800;84;21140;-69
2022/10/18 10:52:52;;;;;;;9.63;5.20;;;;;;;16.37;82.37;151765.75;1665852;84;21139;-70
2022/10/18 10:55:31;;;;;;;8.10;5.58;;;;;;;16.39;82.79;151770.95;1668549;83;22193;-72
2022/10/18 10:57:58;;;;;;;10.32;5.40;;;;;;;16.37;82.82;151767.08;1666434;84;22169;-70
2022/10/18 11:00:50;;;;;;;13.25;5.47;;;;;;;16.35;82.95;151761.81;1651489;84;21116;-70
2022/10/18 11:03:19;;;;;;;6.97;4.75;;;;;;;16.36;82.71;151763.14;1655232;84;21122;-71
2022/10/18 11:05:54;;;;;;;11.65;4.90;;;;;;;16.35;82.05;151761.81;1672482;84;20998;-71
2022/10/18 11:08:26;;;;;;;12.68;5.00;;;;;;;16.32;82.07;151755.33;1673224;84;21039;-70
2022/10/18 11:11:18;;;;;;;11.28;4.50;;;;;;;16.30;81.78;151750.12;1660478;84;22671;-70
2022/10/18 11:14:17;;;;;;;6.12;4.25;;;;;;;16.29;81.03;151746.19;1678900;84;21541;-71
2022/10/18 11:17:21;;;;;;;10.60;4.80;;;;;;;16.27;80.88;151740.98;1672571;84;21091;-70
2022/10/18 11:20:17;;;;;;;9.05;5.25;;;;;;;16.25;80.66;151735.78;1666835;83;21104;-68
2022/10/18 11:23:02;;;;;;;9.05;5.00;;;;;;;16.23;80.56;151731.84;1668054;84;20999;-70
2022/10/18 11:26:14;;;;;;;7.92;4.60;;;;;;;16.21;80.26;151726.64;1681294;83;21169;-69
2022/10/18 11:29:18;;;;;;;7.87;4.45;;;;;;;16.21;79.87;151726.64;1671046;84;21075;-69
2022/10/18 11:32:20;;;;;;;9.15;4.20;;;;;;;16.17;79.87;151716.22;1667892;84;21035;-70
2022/10/18 11:35:20;;;;;;;5.60;3.83;;;;;;;16.12;79.80;151703.22;1680644;84;21085;-71
2022/10/18 11:38:07;;;;;;;10.50;4.08;;;;;;;16.08;79.89;151694.08;1634240;86;21151;-70
2022/10/18 11:41:00;;;;;;;10.15;3.95;;;;;;;16.09;79.97;151695.41;1642460;84;21950;-70
2022/10/18 11:43:55;;;;;;;6.87;3.60;;;;;;;16.08;79.84;151692.81;1678061;84;21072;-69
2022/10/18 11:46:48;;;;;;;5.17;4.08;;;;;;;16.08;79.52;151694.08;1676324;84;21604;-70